Time;durP1;ratioP1;P1;durP2;ratioP2;P2;SDS_P1;SDS_P2;PMS_P1;PMS_P2;Temp;Humidity;BMP_temperature;BMP_pressure;BME280_temperature;BME280_humidity;BME280_pressure;Samples;Min_cycle;Max_cycle;Signal;HPM_P1;HPM_P2
2022/06/05 00:01:26;;;;;;;23.67;22.43;;;19.80;62.30;;;;;;5033349;28;20416;-82
2022/06/05 00:03:59;;;;;;;23.77;22.30;;;19.70;62.50;;;;;;5032809;28;20794;-82
2022/06/05 00:06:39;;;;;;;23.20;22.10;;;19.70;63.00;;;;;;5034294;28;20465;-82
2022/06/05 00:09:13;;;;;;;22.30;21.20;;;19.70;63.00;;;;;;5032860;28;20927;-82
2022/06/05 00:12:01;;;;;;;22.23;21.13;;;19.70;63.20;;;;;;5032041;28;20488;-82
2022/06/05 00:14:26;;;;;;;23.07;21.87;;;19.60;63.30;;;;;;5033518;28;20419;-82
2022/06/05 00:16:52;;;;;;;24.20;22.40;;;19.60;63.50;;;;;;5029982;28;20419;-82
2022/06/05 00:19:18;;;;;;;23.60;22.33;;;19.60;63.70;;;;;;5031098;28;20626;-82
2022/06/05 00:21:43;;;;;;;23.40;22.20;;;19.60;64.10;;;;;;5032546;28;20184;-81
2022/06/05 00:24:09;;;;;;;24.23;22.80;;;19.60;64.20;;;;;;5032411;28;20180;-82
2022/06/05 00:26:55;;;;;;;23.90;22.70;;;19.60;65.50;;;;;;5031894;28;20215;-82
2022/06/05 00:29:59;;;;;;;23.50;22.10;;;19.60;64.30;;;;;;5032366;28;20177;-81
2022/06/05 00:32:33;;;;;;;22.00;20.87;;;19.50;64.50;;;;;;5032837;28;20411;-82
2022/06/05 00:34:59;;;;;;;22.10;21.03;;;19.50;64.90;;;;;;5031649;28;20424;-82
2022/06/05 00:37:46;;;;;;;23.47;22.27;;;19.50;64.20;;;;;;5032357;28;20469;-82
2022/06/05 00:40:30;;;;;;;22.40;21.30;;;19.50;64.20;;;;;;5029611;28;20752;-82
2022/06/05 00:42:57;;;;;;;22.63;21.33;;;19.50;64.60;;;;;;5031515;28;20442;-82
2022/06/05 00:45:27;;;;;;;23.20;22.00;;;19.50;64.70;;;;;;5031635;28;20466;-82
2022/06/05 00:47:53;;;;;;;22.33;21.23;;;19.50;64.70;;;;;;5032267;28;20857;-82
2022/06/05 00:50:23;;;;;;;22.80;21.70;;;19.50;64.60;;;;;;5033481;28;20541;-82
2022/06/05 00:52:55;;;;;;;22.10;21.07;;;19.50;64.00;;;;;;5032576;28;20947;-82
2022/06/05 00:55:22;;;;;;;22.53;21.43;;;19.50;63.60;;;;;;5031529;28;20430;-82
2022/06/05 00:57:49;;;;;;;22.63;21.50;;;19.50;63.30;;;;;;5032640;28;20898;-82
2022/06/05 01:00:23;;;;;;;22.93;21.80;;;19.50;63.60;;;;;;5031194;28;20574;-82
2022/06/05 01:02:52;;;;;;;25.33;23.83;;;19.50;63.60;;;;;;5032009;28;20760;-82
2022/06/05 01:05:19;;;;;;;23.53;22.33;;;19.50;63.70;;;;;;5030098;28;20474;-82
2022/06/05 01:07:46;;;;;;;22.60;21.30;;;19.50;62.90;;;;;;5032320;28;20412;-82
2022/06/05 01:10:13;;;;;;;25.07;23.83;;;19.50;63.30;;;;;;5031383;28;20801;-81
2022/06/05 01:13:03;;;;;;;22.60;21.40;;;19.50;62.70;;;;;;5031460;28;20411;-82
2022/06/05 01:15:55;;;;;;;23.20;22.00;;;19.50;62.60;;;;;;5030965;28;20416;-82
2022/06/05 01:18:32;;;;;;;22.93;21.80;;;19.50;62.60;;;;;;5030166;28;20424;-82
2022/06/05 01:21:34;;;;;;;23.70;22.50;;;19.60;62.70;;;;;;5031274;28;20868;-82
2022/06/05 01:24:18;;;;;;;23.27;21.97;;;19.50;62.10;;;;;;5031001;28;20977;-82
2022/06/05 01:26:56;;;;;;;23.40;22.20;;;19.60;62.70;;;;;;5031429;28;20467;-82
2022/06/05 01:29:27;;;;;;;22.50;21.43;;;19.50;62.50;;;;;;5029881;28;20407;-82
2022/06/05 01:31:58;;;;;;;23.87;22.40;;;19.50;62.60;;;;;;5032046;28;20420;-82
2022/06/05 01:34:33;;;;;;;24.40;23.00;;;19.60;62.50;;;;;;5030908;28;20632;-82
2022/06/05 01:37:17;;;;;;;23.60;22.20;;;19.60;62.40;;;;;;5030819;28;20817;-82
2022/06/05 01:40:14;;;;;;;23.17;22.00;;;19.60;62.30;;;;;;5030935;28;20423;-82
2022/06/05 01:42:57;;;;;;;23.63;22.33;;;19.40;62.50;;;;;;5026741;28;20459;-82
2022/06/05 01:45:40;;;;;;;23.60;22.50;;;19.40;62.90;;;;;;5032567;28;20542;-82
2022/06/05 01:48:10;;;;;;;23.10;21.90;;;19.30;63.00;;;;;;5031863;28;20424;-82
2022/06/05 01:50:50;;;;;;;22.57;21.47;;;19.30;63.50;;;;;;5031588;28;20415;-82
2022/06/05 01:53:22;;;;;;;23.00;21.90;;;19.20;63.70;;;;;;5030463;28;20419;-82
2022/06/05 01:56:06;;;;;;;23.77;22.37;;;19.20;63.40;;;;;;5030825;28;20837;-82
2022/06/05 01:58:37;;;;;;;23.33;22.10;;;19.20;63.60;;;;;;5031437;28;20529;-82
2022/06/05 02:01:09;;;;;;;23.17;21.67;;;19.10;63.50;;;;;;5029813;28;20428;-82
2022/06/05 02:03:48;;;;;;;23.17;21.97;;;19.10;63.50;;;;;;5031428;28;20427;-82
2022/06/05 02:06:19;;;;;;;23.73;22.50;;;19.20;63.80;;;;;;5029765;28;20473;-82
2022/06/05 02:08:49;;;;;;;23.57;22.37;;;19.10;63.50;;;;;;5031044;28;20418;-82
2022/06/05 02:11:31;;;;;;;23.37;22.20;;;19.20;63.60;;;;;;5030569;28;20424;-82
2022/06/05 02:14:06;;;;;;;24.30;23.00;;;19.20;63.80;;;;;;5030252;28;20412;-82
2022/06/05 02:16:35;;;;;;;24.00;22.70;;;19.20;63.30;;;;;;5028575;28;20795;-81
2022/06/05 02:19:05;;;;;;;24.50;23.00;;;19.20;63.60;;;;;;5029899;28;20431;-81
2022/06/05 02:21:32;;;;;;;23.60;22.40;;;19.20;63.80;;;;;;5030210;28;20491;-81
2022/06/05 02:23:58;;;;;;;24.03;22.67;;;19.20;63.50;;;;;;5029060;28;20454;-81
2022/06/05 02:26:26;;;;;;;23.27;21.97;;;19.10;63.80;;;;;;5028726;28;20513;-81
2022/06/05 02:28:54;;;;;;;24.23;22.93;;;19.10;64.20;;;;;;5030724;28;20288;-81
2022/06/05 02:32:00;;;;;;;23.83;22.43;;;19.00;64.60;;;;;;5029570;28;20506;-81
2022/06/05 02:34:27;;;;;;;24.33;22.93;;;19.00;64.50;;;;;;5009281;28;20451;-81
2022/06/05 02:37:00;;;;;;;23.23;21.93;;;19.00;65.10;;;;;;5007743;28;20502;-81
2022/06/05 02:39:42;;;;;;;23.67;22.17;;;18.90;64.70;;;;;;5025974;28;20431;-81
2022/06/05 02:42:24;;;;;;;23.83;22.43;;;18.90;65.20;;;;;;5029248;28;20419;-81
2022/06/05 02:44:56;;;;;;;23.90;22.67;;;18.90;64.80;;;;;;5029167;28;20427;-81
2022/06/05 02:47:31;;;;;;;25.20;23.70;;;18.90;65.50;;;;;;5030239;28;20463;-82
2022/06/05 02:50:19;;;;;;;23.33;22.03;;;18.80;66.00;;;;;;5029299;28;20480;-82
2022/06/05 02:52:45;;;;;;;23.10;22.00;;;18.80;66.50;;;;;;5029815;28;20926;-82
2022/06/05 02:55:29;;;;;;;25.27;23.97;;;18.80;66.50;;;;;;5029316;28;20431;-82
2022/06/05 02:57:55;;;;;;;23.90;22.60;;;18.90;66.30;;;;;;5029169;28;20439;-82
2022/06/05 03:00:24;;;;;;;23.07;21.80;;;18.90;66.90;;;;;;5029226;28;20427;-82
2022/06/05 03:05:34;;;;;;;23.60;22.30;;;18.90;66.10;;;;;;5030143;28;20515;-82
2022/06/05 03:08:00;;;;;;;23.70;22.20;;;18.90;66.30;;;;;;5032157;28;20906;-82
2022/06/05 03:10:27;;;;;;;24.23;22.83;;;18.90;66.10;;;;;;5030708;28;20423;-82
2022/06/05 03:12:53;;;;;;;24.00;22.60;;;18.90;67.30;;;;;;5030638;28;20215;-82
2022/06/05 03:15:19;;;;;;;23.70;22.30;;;18.90;66.40;;;;;;5030570;28;20476;-82
2022/06/05 03:17:45;;;;;;;24.77;23.33;;;18.80;67.60;;;;;;5030811;28;20833;-82
2022/06/05 03:20:13;;;;;;;23.53;22.07;;;18.80;66.90;;;;;;5030911;28;20196;-82
2022/06/05 03:22:39;;;;;;;23.07;21.73;;;18.70;67.20;;;;;;5047853;28;20458;-82
2022/06/05 03:25:06;;;;;;;23.87;22.30;;;18.70;67.90;;;;;;5032434;28;20457;-82
2022/06/05 03:27:31;;;;;;;23.13;21.63;;;18.70;67.70;;;;;;5031287;28;20477;-82
2022/06/05 03:29:58;;;;;;;23.50;22.07;;;18.70;67.20;;;;;;5032140;28;20423;-82
2022/06/05 03:32:25;;;;;;;23.97;22.43;;;18.80;67.80;;;;;;5032476;28;20200;-82
2022/06/05 03:34:51;;;;;;;22.20;21.00;;;18.80;67.20;;;;;;5031934;28;20423;-82
2022/06/05 03:37:17;;;;;;;22.67;21.13;;;18.80;67.50;;;;;;5032062;28;20930;-82
2022/06/05 03:39:42;;;;;;;23.30;22.10;;;18.80;66.90;;;;;;5033576;28;20177;-82
2022/06/05 03:42:08;;;;;;;23.60;22.20;;;18.80;66.60;;;;;;5032085;28;20268;-82
2022/06/05 03:44:38;;;;;;;25.73;24.27;;;18.80;67.20;;;;;;5031628;28;20180;-80
2022/06/05 03:47:07;;;;;;;24.07;22.67;;;18.80;66.50;;;;;;5031661;28;20463;-81
2022/06/05 03:49:34;;;;;;;23.33;21.93;;;18.80;66.30;;;;;;5032234;28;20424;-81
2022/06/05 03:51:59;;;;;;;23.30;21.90;;;18.80;67.20;;;;;;5030266;28;20455;-82
2022/06/05 03:54:25;;;;;;;23.00;21.53;;;18.90;66.90;;;;;;5031605;28;20492;-81
2022/06/05 03:56:51;;;;;;;23.70;22.30;;;18.90;66.90;;;;;;5030170;28;20909;-81
2022/06/05 03:59:17;;;;;;;23.10;21.70;;;19.00;65.60;;;;;;5033100;28;20180;-82
2022/06/05 04:01:42;;;;;;;22.77;21.60;;;19.00;66.10;;;;;;5032609;28;20234;-82
2022/06/05 04:04:08;;;;;;;23.33;22.10;;;19.00;66.30;;;;;;5030747;28;20179;-82
2022/06/05 04:06:34;;;;;;;22.80;21.60;;;19.00;66.30;;;;;;5032027;28;20215;-82
2022/06/05 04:09:05;;;;;;;21.53;20.23;;;19.00;66.50;;;;;;5031397;28;20184;-82
2022/06/05 04:11:33;;;;;;;22.77;21.40;;;19.00;67.00;;;;;;5030747;28;20200;-82
2022/06/05 04:13:59;;;;;;;22.17;20.97;;;19.00;68.60;;;;;;5031723;28;20874;-82
2022/06/05 04:16:27;;;;;;;21.07;19.87;;;18.90;69.60;;;;;;5029982;28;20415;-82
2022/06/05 04:18:54;;;;;;;20.70;19.50;;;18.80;70.60;;;;;;5033221;28;20779;-83
2022/06/05 04:21:23;;;;;;;21.43;19.93;;;18.80;71.70;;;;;;5032057;28;20422;-85
2022/06/05 04:23:49;;;;;;;19.33;18.33;;;18.70;73.80;;;;;;5031530;28;20419;-85
2022/06/05 04:26:18;;;;;;;19.77;18.70;;;18.60;75.80;;;;;;5031706;28;20463;-84
2022/06/05 04:28:44;;;;;;;20.37;18.97;;;18.50;76.50;;;;;;5030779;28;20431;-84
2022/06/05 04:31:24;;;;;;;19.87;18.67;;;18.50;78.70;;;;;;5032230;28;20501;-84
2022/06/05 04:33:51;;;;;;;21.10;19.47;;;18.40;79.30;;;;;;5031143;28;20176;-84
2022/06/05 04:36:17;;;;;;;19.40;18.20;;;18.40;79.30;;;;;;5032036;28;20412;-84
2022/06/05 04:38:43;;;;;;;19.80;18.50;;;18.40;79.30;;;;;;5032427;28;20786;-82
2022/06/05 04:41:09;;;;;;;18.00;16.97;;;18.40;81.70;;;;;;5032232;28;20510;-86
2022/06/05 04:43:35;;;;;;;19.23;17.93;;;18.40;81.40;;;;;;5030875;28;20420;-85
2022/06/05 04:46:00;;;;;;;19.37;18.07;;;18.30;82.10;;;;;;5029190;28;20509;-84
2022/06/05 04:48:26;;;;;;;18.70;17.40;;;18.30;83.70;;;;;;5026002;28;20419;-83
2022/06/05 04:50:52;;;;;;;20.03;18.53;;;18.30;82.70;;;;;;5051889;28;20172;-84
2022/06/05 04:53:19;;;;;;;19.13;17.80;;;18.30;81.90;;;;;;5058041;28;20172;-84
2022/06/05 04:55:44;;;;;;;18.43;17.10;;;18.30;81.30;;;;;;5046189;28;20609;-84
2022/06/05 04:58:10;;;;;;;20.07;18.77;;;18.40;80.80;;;;;;5064720;28;20454;-84
2022/06/05 05:00:38;;;;;;;17.77;16.67;;;18.40;80.30;;;;;;5068530;28;20238;-84
2022/06/05 05:03:04;;;;;;;18.27;16.97;;;18.40;81.20;;;;;;5059703;28;20184;-83
2022/06/05 05:05:30;;;;;;;18.60;17.30;;;18.30;81.20;;;;;;5048362;28;20459;-83
2022/06/05 05:07:55;;;;;;;17.77;16.47;;;18.40;80.60;;;;;;5055978;28;20410;-84
2022/06/05 05:10:21;;;;;;;18.10;16.83;;;18.30;80.10;;;;;;5052562;28;20636;-83
2022/06/05 05:12:47;;;;;;;17.47;15.77;;;18.30;82.40;;;;;;5045816;28;20184;-84
2022/06/05 05:15:12;;;;;;;16.63;15.37;;;18.30;83.20;;;;;;5048820;28;20572;-80
2022/06/05 05:17:38;;;;;;;14.03;13.03;;;18.30;85.00;;;;;;5052016;28;20632;-82
2022/06/05 05:20:05;;;;;;;16.50;15.00;;;18.20;85.30;;;;;;5052236;28;20222;-79
2022/06/05 05:22:37;;;;;;;16.03;14.73;;;18.10;87.70;;;;;;5051944;28;20183;-82
2022/06/05 05:25:07;;;;;;;15.07;13.90;;;18.10;88.10;;;;;;5052030;28;20499;-83
2022/06/05 05:27:34;;;;;;;14.27;12.90;;;18.10;88.90;;;;;;5052170;28;20488;-84
2022/06/05 05:30:00;;;;;;;14.90;13.67;;;18.10;90.10;;;;;;5054192;28;20451;-81
2022/06/05 05:32:26;;;;;;;15.43;13.93;;;18.10;90.50;;;;;;5047600;28;20410;-82
2022/06/05 05:34:52;;;;;;;20.00;13.40;;;18.00;91.80;;;;;;5034142;28;20406;-82
2022/06/05 05:37:18;;;;;;;16.07;14.67;;;17.90;92.70;;;;;;5049644;28;20411;-82
2022/06/05 05:42:30;;;;;;;16.70;13.97;;;17.90;95.20;;;;;;5052203;28;20191;-85
2022/06/05 05:44:56;;;;;;;15.20;13.90;;;17.90;96.80;;;;;;5049209;28;20437;-85
2022/06/05 05:47:28;;;;;;;13.53;12.33;;;17.90;97.40;;;;;;5050103;28;20459;-84
2022/06/05 05:49:57;;;;;;;13.27;12.07;;;17.80;97.90;;;;;;5069152;28;20410;-84
2022/06/05 05:52:25;;;;;;;18.80;13.43;;;17.90;98.70;;;;;;5067670;28;20422;-84
2022/06/05 05:54:51;;;;;;;16.13;12.70;;;17.90;99.40;;;;;;5068846;28;20407;-85
2022/06/05 05:57:17;;;;;;;13.83;12.53;;;18.00;98.20;;;;;;5068244;28;20422;-86
2022/06/05 05:59:43;;;;;;;13.30;12.00;;;17.90;97.90;;;;;;5049668;28;20243;-86
2022/06/05 06:02:14;;;;;;;16.37;14.10;;;17.90;98.20;;;;;;5049163;28;20927;-88
2022/06/05 06:04:41;;;;;;;14.67;13.13;;;18.00;97.80;;;;;;5051770;28;20172;-82
2022/06/05 06:07:08;;;;;;;15.17;13.63;;;18.00;97.00;;;;;;5057260;28;20883;-85
2022/06/05 06:09:34;;;;;;;17.13;12.33;;;18.00;97.50;;;;;;5068943;28;20906;-85
2022/06/05 06:12:00;;;;;;;14.60;12.73;;;17.90;98.00;;;;;;5069671;28;20463;-85
2022/06/05 06:14:26;;;;;;;20.13;12.40;;;17.80;98.60;;;;;;5067350;28;20560;-86
2022/06/05 06:16:52;;;;;;;14.17;11.47;;;17.80;98.50;;;;;;5067535;28;20529;-86
2022/06/05 06:19:21;;;;;;;15.00;13.40;;;17.80;99.60;;;;;;5065337;28;20206;-86
2022/06/05 06:21:46;;;;;;;13.40;12.10;;;17.80;98.50;;;;;;5067424;28;20422;-86
2022/06/05 06:24:13;;;;;;;12.03;10.80;;;17.80;99.10;;;;;;5048921;28;20426;-88
2022/06/05 06:26:40;;;;;;;12.97;11.67;;;17.80;99.60;;;;;;5046835;28;20215;-85
2022/06/05 06:29:06;;;;;;;11.67;10.67;;;17.80;99.60;;;;;;5045850;28;20419;-86
2022/06/05 06:31:33;;;;;;;11.90;9.57;;;17.80;98.70;;;;;;5045485;28;20411;-85
2022/06/05 06:33:59;;;;;;;10.87;10.07;;;17.70;97.90;;;;;;5061336;28;20418;-85
2022/06/05 06:36:25;;;;;;;9.47;8.63;;;17.70;97.80;;;;;;5067463;28;20945;-86
2022/06/05 06:38:50;;;;;;;11.20;9.97;;;17.60;96.40;;;;;;5051489;28;20234;-86
2022/06/05 06:41:18;;;;;;;11.10;10.20;;;17.60;97.40;;;;;;5045671;28;20184;-85
2022/06/05 06:43:47;;;;;;;9.37;8.57;;;17.40;97.40;;;;;;5058125;28;20183;-87
2022/06/05 06:46:14;;;;;;;8.53;7.80;;;17.50;98.50;;;;;;5065827;28;21039;-87
2022/06/05 06:48:43;;;;;;;9.47;8.70;;;17.50;98.80;;;;;;5054328;28;20760;-87
2022/06/05 06:51:09;;;;;;;11.63;10.63;;;17.40;99.10;;;;;;5046108;28;20420;-87
2022/06/05 06:53:36;;;;;;;17.67;9.57;;;17.50;99.70;;;;;;5057183;28;20180;-87
2022/06/05 06:56:12;;;;;;;8.50;7.80;;;17.40;99.90;;;;;;5066140;28;20980;-87
2022/06/05 06:58:42;;;;;;;9.43;8.00;;;17.50;99.90;;;;;;5053361;28;20419;-89
2022/06/05 07:01:07;;;;;;;7.47;6.87;;;17.50;99.90;;;;;;5053426;28;20470;-87
2022/06/05 07:03:34;;;;;;;8.77;7.97;;;17.40;99.90;;;;;;5057678;28;20419;-87
2022/06/05 07:06:09;;;;;;;9.80;7.90;;;17.40;99.90;;;;;;5047863;28;20289;-86
2022/06/05 07:08:35;;;;;;;10.30;9.37;;;17.50;99.90;;;;;;5049012;28;20422;-87
2022/06/05 07:11:04;;;;;;;9.20;8.50;;;17.50;99.90;;;;;;5046878;28;20517;-87
2022/06/05 07:13:29;;;;;;;8.93;8.23;;;17.40;99.90;;;;;;5047154;28;20506;-85
2022/06/05 07:16:03;;;;;;;8.43;7.57;;;17.40;99.90;;;;;;5049527;28;20565;-88
2022/06/05 07:18:29;;;;;;;8.83;8.03;;;17.50;99.90;;;;;;5047893;28;20172;-85
2022/06/05 07:20:55;;;;;;;9.40;8.60;;;17.50;99.90;;;;;;5051023;28;20426;-86
2022/06/05 07:23:21;;;;;;;10.37;9.37;;;17.50;99.90;;;;;;5048549;28;20543;-86
2022/06/05 07:25:49;;;;;;;9.17;8.33;;;17.50;99.30;;;;;;5049745;28;20304;-87
2022/06/05 07:28:15;;;;;;;8.53;7.83;;;17.40;99.90;;;;;;5048787;28;20231;-89
2022/06/05 07:30:49;;;;;;;9.40;8.50;;;17.50;99.90;;;;;;5049838;28;20447;-83
2022/06/05 07:33:16;;;;;;;12.10;11.37;;;17.50;99.90;;;;;;5052664;28;20180;-83
2022/06/05 07:35:42;;;;;;;10.50;9.80;;;17.50;99.80;;;;;;5050504;28;20414;-84
2022/06/05 07:38:09;;;;;;;10.37;9.57;;;17.50;99.70;;;;;;5051376;28;20426;-83
2022/06/05 07:40:42;;;;;;;10.60;9.80;;;17.50;99.10;;;;;;5050425;28;20480;-82
2022/06/05 07:43:10;;;;;;;10.23;9.57;;;17.50;99.90;;;;;;5051728;28;20418;-82
2022/06/05 07:45:37;;;;;;;10.73;10.03;;;17.50;99.90;;;;;;5051534;28;20821;-83
2022/06/05 07:48:04;;;;;;;10.90;10.20;;;17.50;99.90;;;;;;5052069;28;20421;-83
2022/06/05 07:50:30;;;;;;;13.73;10.50;;;17.50;99.90;;;;;;5052834;28;20414;-83
2022/06/05 07:55:40;;;;;;;11.23;10.43;;;17.50;99.90;;;;;;5053502;28;20418;-83
2022/06/05 07:58:05;;;;;;;15.37;9.20;;;17.60;99.90;;;;;;5052630;28;20414;-83
2022/06/05 08:00:31;;;;;;;10.27;9.57;;;17.60;99.90;;;;;;5050735;28;20237;-83
2022/06/05 08:02:57;;;;;;;9.47;8.77;;;17.60;99.90;;;;;;5050313;28;20176;-83
2022/06/05 08:05:23;;;;;;;8.73;8.33;;;17.60;99.90;;;;;;5049763;28;20433;-83
2022/06/05 08:07:48;;;;;;;10.10;9.50;;;17.60;99.90;;;;;;5051091;28;20233;-84
2022/06/05 08:10:15;;;;;;;10.70;9.80;;;17.60;99.90;;;;;;5051442;28;20172;-84
2022/06/05 08:12:45;;;;;;;9.87;9.27;;;17.70;99.90;;;;;;5050507;28;20226;-84
2022/06/05 08:15:13;;;;;;;10.20;9.60;;;17.70;99.90;;;;;;5049018;28;20415;-82
2022/06/05 08:17:39;;;;;;;10.50;9.80;;;17.70;99.90;;;;;;5050830;28;20443;-84
2022/06/05 08:20:07;;;;;;;9.23;8.63;;;17.80;99.90;;;;;;5048635;28;20789;-82
2022/06/05 08:22:33;;;;;;;10.63;9.80;;;17.80;99.90;;;;;;5050060;28;20418;-82
2022/06/05 08:24:59;;;;;;;9.23;8.53;;;17.90;99.80;;;;;;5051349;28;20438;-82
2022/06/05 08:27:26;;;;;;;9.13;8.63;;;17.90;99.90;;;;;;5050979;28;20465;-82
2022/06/05 08:29:56;;;;;;;9.20;8.70;;;17.90;99.90;;;;;;5051918;28;20208;-83
2022/06/05 08:32:24;;;;;;;8.27;7.77;;;18.00;99.90;;;;;;5050342;28;20922;-83
2022/06/05 08:34:50;;;;;;;7.67;7.33;;;18.10;99.90;;;;;;5051200;28;20811;-84
2022/06/05 08:43:11;;;;;;;8.37;7.97;;;18.30;99.90;;;;;;5052792;28;20409;-84
2022/06/05 08:46:03;;;;;;;11.00;10.40;;;18.30;97.80;;;;;;5052066;28;20819;-83
2022/06/05 08:48:36;;;;;;;9.90;9.30;;;18.30;95.20;;;;;;5052400;28;20410;-84
2022/06/05 08:51:27;;;;;;;10.10;9.30;;;18.40;98.80;;;;;;5052594;28;20414;-83
2022/06/05 08:53:55;;;;;;;10.00;9.43;;;18.50;99.90;;;;;;5051094;28;20446;-83
2022/06/05 08:56:37;;;;;;;9.70;9.10;;;18.40;99.90;;;;;;5052204;28;20797;-83
2022/06/05 08:59:28;;;;;;;10.40;9.90;;;18.40;99.60;;;;;;5051600;28;20422;-84
2022/06/05 09:02:11;;;;;;;10.93;10.53;;;18.50;99.20;;;;;;5052289;28;20406;-84
2022/06/05 09:05:09;;;;;;;10.67;10.00;;;18.60;97.80;;;;;;5051606;28;20419;-84
2022/06/05 09:07:57;;;;;;;9.43;8.97;;;18.70;99.60;;;;;;5046157;28;20462;-84
2022/06/05 09:10:29;;;;;;;10.47;10.07;;;18.80;99.00;;;;;;5052488;28;20429;-83
2022/06/05 09:12:57;;;;;;;10.87;10.17;;;18.90;96.80;;;;;;5052243;28;20403;-83
2022/06/05 09:15:37;;;;;;;9.80;9.40;;;19.00;96.20;;;;;;5053350;28;20419;-83
2022/06/05 09:18:13;;;;;;;11.20;10.80;;;19.00;94.20;;;;;;5052181;28;20468;-83
2022/06/05 09:20:53;;;;;;;14.77;14.07;;;19.00;88.60;;;;;;5051423;28;20427;-84
2022/06/05 09:23:26;;;;;;;14.17;13.67;;;19.00;90.80;;;;;;5051416;28;20176;-84
2022/06/05 09:26:04;;;;;;;13.30;12.70;;;19.10;92.10;;;;;;5049329;28;20561;-84
2022/06/05 09:28:51;;;;;;;12.30;11.70;;;19.10;98.60;;;;;;5051602;28;20450;-84
2022/06/05 09:31:23;;;;;;;10.70;10.20;;;19.10;98.60;;;;;;5052158;28;20580;-84
2022/06/05 09:33:51;;;;;;;11.37;10.90;;;19.00;99.90;;;;;;5051332;28;20419;-82
2022/06/05 09:36:19;;;;;;;10.37;9.87;;;19.00;99.90;;;;;;5051909;28;21039;-83
2022/06/05 09:38:57;;;;;;;11.60;11.10;;;19.10;99.90;;;;;;5052405;28;20440;-83
2022/06/05 09:41:52;;;;;;;13.13;12.43;;;19.10;99.70;;;;;;5052682;28;20422;-83
2022/06/05 09:44:43;;;;;;;15.00;14.30;;;19.20;90.70;;;;;;5052119;28;20455;-84
2022/06/05 09:47:17;;;;;;;14.50;13.90;;;19.40;91.40;;;;;;5052407;28;20910;-87
2022/06/05 09:49:54;;;;;;;12.80;12.03;;;19.40;97.70;;;;;;5054194;28;20402;-89
2022/06/05 09:52:25;;;;;;;12.53;11.97;;;19.30;95.30;;;;;;5054091;28;20421;-89
2022/06/05 09:55:35;;;;;;;11.80;11.40;;;19.30;95.70;;;;;;5053602;28;20454;-89
2022/06/05 09:58:27;;;;;;;13.03;12.63;;;19.20;93.50;;;;;;5012614;28;20412;-88
2022/06/05 10:00:58;;;;;;;13.70;13.15;;;19.30;94.30;;;;;;5048043;28;20416;-87
2022/06/05 10:03:40;;;;;;;14.60;14.10;;;19.40;95.60;;;;;;5053541;28;20172;-83
2022/06/05 10:06:28;;;;;;;12.47;11.70;;;19.50;98.00;;;;;;5052585;28;20450;-87
2022/06/05 10:09:15;;;;;;;14.57;13.90;;;19.60;99.90;;;;;;5051296;28;20450;-88
2022/06/05 10:11:40;;;;;;;15.00;14.43;;;19.70;95.80;;;;;;5052255;28;20434;-86
2022/06/05 10:14:24;;;;;;;17.03;16.33;;;20.10;83.90;;;;;;5051812;28;20457;-88
2022/06/05 10:17:11;;;;;;;18.33;17.53;;;20.30;76.00;;;;;;5052811;28;20180;-88
2022/06/05 10:19:52;;;;;;;17.93;16.93;;;20.40;80.50;;;;;;5051558;28;20439;-89
2022/06/05 10:22:26;;;;;;;17.87;16.87;;;20.40;75.00;;;;;;5051384;28;20422;-87
2022/06/05 10:25:02;;;;;;;17.90;17.10;;;20.50;75.00;;;;;;5052831;28;20750;-86
2022/06/05 10:30:50;;;;;;;18.53;17.63;;;20.50;79.20;;;;;;5053164;28;20494;-87
2022/06/05 10:33:38;;;;;;;17.27;16.50;;;20.50;84.80;;;;;;5052543;28;20411;-81
2022/06/05 10:36:22;;;;;;;17.43;16.67;;;20.20;90.80;;;;;;5052146;28;20521;-80
2022/06/05 10:39:07;;;;;;;15.60;14.80;;;20.50;78.70;;;;;;5052616;28;20418;-87
2022/06/05 10:41:48;;;;;;;18.13;17.33;;;20.40;85.30;;;;;;5051970;28;20418;-87
2022/06/05 10:44:35;;;;;;;17.30;16.57;;;20.60;75.70;;;;;;5050660;28;20500;-86
2022/06/05 10:47:05;;;;;;;16.13;15.33;;;20.50;80.50;;;;;;5050990;28;20465;-87
2022/06/05 10:50:07;;;;;;;17.10;16.27;;;20.40;84.70;;;;;;5051115;28;20483;-87
2022/06/05 10:53:09;;;;;;;13.80;13.10;;;20.50;82.20;;;;;;5049926;28;20779;-87
2022/06/05 10:56:14;;;;;;;13.33;12.30;;;20.40;87.40;;;;;;5050321;28;20414;-87
2022/06/05 10:58:56;;;;;;;13.57;12.97;;;20.30;90.10;;;;;;5049923;28;20437;-87
2022/06/05 11:01:57;;;;;;;13.23;12.60;;;20.20;90.70;;;;;;5050414;28;20422;-86
2022/06/05 11:04:50;;;;;;;15.50;14.70;;;20.10;91.20;;;;;;5042760;28;20527;-87
2022/06/05 11:07:50;;;;;;;14.93;14.03;;;20.00;87.00;;;;;;5049633;28;20466;-87
2022/06/05 11:13:47;;;;;;;14.20;13.60;;;19.90;90.00;;;;;;5051746;28;20433;-86
2022/06/05 11:16:38;;;;;;;14.87;13.87;;;19.80;93.00;;;;;;5050250;28;20410;-87
2022/06/05 11:19:30;;;;;;;14.80;13.90;;;19.70;91.80;;;;;;5052419;28;20497;-86
2022/06/05 11:22:00;;;;;;;14.60;13.80;;;19.60;93.30;;;;;;5050539;28;20513;-85
2022/06/05 11:24:33;;;;;;;14.17;13.13;;;19.60;94.50;;;;;;5051116;28;20422;-86
2022/06/05 11:27:33;;;;;;;14.80;14.00;;;19.60;94.50;;;;;;5049830;28;20469;-86
2022/06/05 11:30:06;;;;;;;13.17;12.43;;;19.60;94.20;;;;;;5045508;28;20422;-85
2022/06/05 11:32:58;;;;;;;13.30;12.40;;;19.60;95.30;;;;;;5050783;28;20465;-82
2022/06/05 11:35:33;;;;;;;14.13;13.43;;;19.60;94.80;;;;;;5039528;28;20484;-84
2022/06/05 11:38:25;;;;;;;14.18;13.25;;;19.60;96.00;;;;;;5050231;28;20416;-85
2022/06/05 11:41:05;;;;;;;13.50;12.80;;;19.60;95.70;;;;;;5051465;28;20164;-85
2022/06/05 11:43:37;;;;;;;14.33;13.17;;;19.60;96.50;;;;;;5052186;28;20826;-86
2022/06/05 11:46:23;;;;;;;13.87;13.20;;;19.70;92.10;;;;;;5050502;28;20814;-86
2022/06/05 11:49:18;;;;;;;14.47;13.87;;;19.70;92.00;;;;;;5050361;28;20750;-87
2022/06/05 11:52:13;;;;;;;14.00;13.40;;;19.80;87.50;;;;;;5054107;28;20422;-87
2022/06/05 11:55:04;;;;;;;14.70;13.80;;;19.90;91.60;;;;;;5054259;28;20415;-85
2022/06/05 11:57:58;;;;;;;13.30;12.60;;;20.20;88.20;;;;;;5049876;28;20418;-86
2022/06/05 12:00:36;;;;;;;14.50;13.80;;;20.30;91.70;;;;;;5052031;28;20766;-86
2022/06/05 12:03:28;;;;;;;14.67;13.70;;;20.60;85.80;;;;;;5070204;28;20414;-87
2022/06/05 12:06:09;;;;;;;14.90;13.80;;;20.60;89.30;;;;;;5070220;28;20459;-86
2022/06/05 12:08:39;;;;;;;14.20;13.50;;;20.70;88.20;;;;;;5070238;28;20495;-87
2022/06/05 12:11:13;;;;;;;13.93;13.13;;;20.80;81.70;;;;;;5062638;28;20406;-86
2022/06/05 12:13:47;;;;;;;13.53;12.83;;;20.90;89.50;;;;;;5039366;28;20471;-82
2022/06/05 12:17:00;;;;;;;16.97;16.17;;;20.90;90.70;;;;;;5041238;28;20443;-82
2022/06/05 12:19:46;;;;;;;18.27;17.37;;;21.00;78.90;;;;;;4983386;28;20824;-80
2022/06/05 12:22:33;;;;;;;23.97;17.33;;;21.10;70.80;;;;;;5009144;28;20458;-81
2022/06/05 12:25:39;;;;;;;18.90;18.10;;;21.20;73.20;;;;;;5043942;28;20441;-82
2022/06/05 12:28:17;;;;;;;22.57;21.47;;;21.20;68.80;;;;;;5032960;28;20427;-81
2022/06/05 12:30:53;;;;;;;22.57;21.47;;;21.30;66.10;;;;;;5036366;28;20414;-81
2022/06/05 12:33:41;;;;;;;20.53;19.40;;;21.30;69.30;;;;;;5069049;28;20410;-81
2022/06/05 12:36:53;;;;;;;22.10;20.70;;;21.30;71.60;;;;;;5061896;28;20470;-81
2022/06/05 12:39:26;;;;;;;24.97;23.63;;;21.30;71.00;;;;;;5015802;28;20924;-81
2022/06/05 12:42:22;;;;;;;20.40;19.30;;;21.40;63.90;;;;;;5051587;28;20486;-81
2022/06/05 12:44:54;;;;;;;21.87;20.77;;;21.50;69.10;;;;;;5032717;28;20503;-81
2022/06/05 12:47:23;;;;;;;21.30;20.30;;;21.60;63.00;;;;;;5047519;28;20462;-81
2022/06/05 12:50:05;;;;;;;21.70;20.60;;;21.80;66.50;;;;;;5068541;28;20418;-81
2022/06/05 12:53:05;;;;;;;24.87;23.70;;;21.80;64.00;;;;;;5068336;28;20795;-81
2022/06/05 12:55:42;;;;;;;28.47;26.73;;;22.10;65.50;;;;;;5066225;28;20975;-81
2022/06/05 12:58:10;;;;;;;31.37;29.73;;;22.30;56.50;;;;;;5048974;28;20419;-81
2022/06/05 13:00:42;;;;;;;34.27;32.57;;;22.30;54.30;;;;;;5052962;28;20521;-81
2022/06/05 13:03:45;;;;;;;27.60;26.30;;;22.30;56.60;;;;;;5068853;28;20429;-81
2022/06/05 13:06:23;;;;;;;27.40;26.10;;;22.30;58.60;;;;;;5066584;28;20460;-81
2022/06/05 13:08:59;;;;;;;29.53;27.97;;;22.40;60.10;;;;;;5069112;28;20518;-81
2022/06/05 13:11:39;;;;;;;30.90;29.40;;;22.60;53.80;;;;;;5059149;28;20473;-81
2022/06/05 13:14:42;;;;;;;28.73;27.23;;;22.70;59.40;;;;;;5048596;28;20510;-81
2022/06/05 13:17:08;;;;;;;28.90;27.40;;;22.80;57.00;;;;;;5048109;28;20438;-81
2022/06/05 13:19:40;;;;;;;29.57;28.07;;;22.70;57.70;;;;;;5048417;28;20447;-81
2022/06/05 13:22:24;;;;;;;30.53;28.97;;;22.80;52.90;;;;;;5048034;28;20408;-81
2022/06/05 13:25:42;;;;;;;31.40;29.60;;;22.80;52.50;;;;;;5048305;28;20408;-81
2022/06/05 13:28:23;;;;;;;31.50;29.90;;;22.60;52.70;;;;;;5048464;28;20507;-81